Time;durP1;ratioP1;P1;durP2;ratioP2;P2;SDS_P1;SDS_P2;PMS_P1;PMS_P2;Temp;Humidity;BMP_temperature;BMP_pressure;BME280_temperature;BME280_humidity;BME280_pressure;Samples;Min_cycle;Max_cycle;Signal;HPM_P1;HPM_P2
2021/10/26 00:01:10;;;;;;;14.63;9.25;;;;;;;7.21;58.00;100878.19;5012664;28;20061;-75
2021/10/26 00:03:35;;;;;;;14.93;9.05;;;;;;;6.90;58.00;100846.50;5012452;28;20029;-76
2021/10/26 00:06:01;;;;;;;12.73;9.50;;;;;;;7.46;58.05;100927.81;5012569;28;20112;-77
2021/10/26 00:08:27;;;;;;;10.77;8.65;;;;;;;7.39;58.23;100926.63;5012353;28;20116;-77
2021/10/26 00:10:53;;;;;;;14.02;8.55;;;;;;;7.17;58.46;100876.75;5012187;28;20030;-77
2021/10/26 00:13:18;;;;;;;10.90;8.05;;;;;;;7.22;58.33;100891.19;5012413;28;20030;-77
2021/10/26 00:15:44;;;;;;;10.35;8.13;;;;;;;6.45;58.07;100771.41;5012312;28;20041;-77
2021/10/26 00:18:09;;;;;;;12.45;8.25;;;;;;;6.75;58.80;100839.84;4994631;28;20096;-77
2021/10/26 00:20:35;;;;;;;13.38;7.40;;;;;;;7.21;58.75;100914.97;4994895;28;20021;-77
2021/10/26 00:23:01;;;;;;;9.88;7.53;;;;;;;6.96;58.72;100885.41;4994584;28;20060;-76
2021/10/26 00:25:27;;;;;;;10.30;7.43;;;;;;;7.26;58.78;100916.25;5012363;28;20022;-77
2021/10/26 00:27:53;;;;;;;10.73;7.50;;;;;;;6.72;58.82;100840.09;5012148;28;20104;-77
2021/10/26 00:30:18;;;;;;;11.30;8.43;;;;;;;7.07;59.08;100899.47;5012071;28;20495;-76
2021/10/26 00:32:44;;;;;;;13.45;9.20;;;;;;;6.56;58.30;100814.22;5011927;28;20097;-77
2021/10/26 00:35:10;;;;;;;13.40;9.07;;;;;;;7.04;58.79;100870.81;5011994;28;20105;-76
2021/10/26 00:37:36;;;;;;;15.88;8.38;;;;;;;6.76;58.25;100827.56;5011889;28;20137;-76
2021/10/26 00:40:04;;;;;;;10.82;7.97;;;;;;;7.13;58.82;100889.31;5011951;28;20034;-76
2021/10/26 00:42:30;;;;;;;9.75;7.47;;;;;;;6.58;58.47;100800.97;4994302;28;20494;-77
2021/10/26 00:44:56;;;;;;;9.40;7.85;;;;;;;7.05;59.16;100883.00;5011621;28;20179;-77
2021/10/26 00:47:22;;;;;;;11.43;7.78;;;;;;;6.93;58.93;100877.78;5011768;28;20113;-76
2021/10/26 00:49:47;;;;;;;12.30;7.60;;;;;;;6.64;58.97;100845.09;5011726;28;20029;-76
2021/10/26 00:52:13;;;;;;;10.95;8.93;;;;;;;6.65;59.28;100844.13;5011577;28;20176;-76
2021/10/26 00:54:39;;;;;;;11.68;8.95;;;;;;;6.24;59.30;100774.78;5011761;28;20109;-77
2021/10/26 00:57:04;;;;;;;11.80;8.60;;;;;;;6.80;59.00;100873.63;5011752;28;20414;-77
2021/10/26 01:02:52;;;;;;;9.93;8.85;;;;;;;6.82;58.89;100872.53;5011686;28;20044;-76
2021/10/26 01:05:18;;;;;;;11.85;8.65;;;;;;;6.42;59.34;100796.09;4994038;28;20025;-76
2021/10/26 01:07:43;;;;;;;12.13;8.05;;;;;;;6.94;59.27;100868.94;4993979;28;20022;-77
2021/10/26 01:10:09;;;;;;;10.20;7.70;;;;;;;5.86;58.70;100699.06;5011570;28;20426;-77
2021/10/26 01:12:36;;;;;;;8.07;6.70;;;;;;;6.78;59.54;100865.03;5011360;28;20077;-77
2021/10/26 01:15:04;;;;;;;10.52;7.60;;;;;;;6.53;59.02;100834.59;5011431;28;20136;-76
2021/10/26 01:17:29;;;;;;;10.27;7.28;;;;;;;6.79;58.77;100851.78;5011316;28;20030;-77
2021/10/26 01:19:56;;;;;;;8.10;6.90;;;;;;;6.80;59.32;100858.69;5011583;28;20095;-77
2021/10/26 01:22:26;;;;;;;8.60;6.90;;;;;;;6.67;59.31;100847.47;5011553;28;20050;-77
2021/10/26 01:24:51;;;;;;;10.27;6.50;;;;;;;6.61;59.11;100840.09;4993827;28;20419;-76
2021/10/26 01:27:18;;;;;;;13.32;8.38;;;;;;;6.82;59.18;100851.53;5011362;28;20022;-76
2021/10/26 01:29:43;;;;;;;9.93;6.43;;;;;;;6.84;58.90;100854.03;5011194;28;20088;-77
2021/10/26 01:32:11;;;;;;;8.65;7.13;;;;;;;6.78;58.42;100828.28;5011145;28;20030;-76
2021/10/26 01:34:37;;;;;;;9.55;6.90;;;;;;;6.25;58.64;100747.59;5011439;28;20025;-76
2021/10/26 01:37:06;;;;;;;10.88;7.38;;;;;;;6.23;58.59;100741.63;5011323;28;20470;-75
2021/10/26 01:39:32;;;;;;;9.00;7.00;;;;;;;6.49;59.13;100780.69;5011096;28;20029;-77
2021/10/26 01:41:59;;;;;;;10.68;7.25;;;;;;;6.70;59.16;100836.75;5011311;28;20032;-77
2021/10/26 01:44:24;;;;;;;13.27;7.45;;;;;;;6.65;58.84;100834.47;5011163;28;20061;-77
2021/10/26 01:46:51;;;;;;;13.15;7.40;;;;;;;6.64;58.91;100831.97;5011348;28;20431;-76
2021/10/26 01:49:18;;;;;;;10.30;7.70;;;;;;;6.45;59.15;100829.13;5011167;28;20465;-77
2021/10/26 01:51:44;;;;;;;13.48;8.55;;;;;;;6.52;59.11;100827.69;5010924;28;20026;-77
2021/10/26 01:54:09;;;;;;;11.57;7.82;;;;;;;6.10;59.59;100776.81;5011073;28;20029;-76
2021/10/26 01:56:35;;;;;;;10.38;7.72;;;;;;;6.42;59.54;100821.50;4995526;28;20164;-76
2021/10/26 01:59:02;;;;;;;10.98;7.40;;;;;;;6.57;59.22;100841.28;5014874;28;20418;-76
2021/10/26 02:01:27;;;;;;;10.90;8.05;;;;;;;6.41;59.10;100804.91;4997526;28;20018;-76
2021/10/26 02:03:53;;;;;;;10.70;7.72;;;;;;;6.04;59.13;100757.13;5014781;28;20036;-76
2021/10/26 02:06:18;;;;;;;11.27;8.55;;;;;;;6.09;59.00;100775.13;5014841;28;20164;-76
2021/10/26 02:08:44;;;;;;;11.70;8.10;;;;;;;3.97;59.24;100443.94;4997005;28;20033;-76
2021/10/26 02:11:09;;;;;;;10.57;7.90;;;;;;;6.01;59.59;100770.47;5014354;28;20476;-77
2021/10/26 02:13:36;;;;;;;11.43;8.10;;;;;;;6.09;59.08;100783.84;5014406;28;20022;-76
2021/10/26 02:16:02;;;;;;;12.38;8.48;;;;;;;6.46;59.51;100823.75;5014406;28;20022;-76
2021/10/26 02:18:28;;;;;;;11.43;7.63;;;;;;;5.83;59.32;100749.09;5014460;28;20049;-77
2021/10/26 02:20:54;;;;;;;12.93;8.70;;;;;;;6.21;59.19;100784.66;5014438;28;20022;-77
2021/10/26 02:23:20;;;;;;;10.00;7.38;;;;;;;6.40;59.32;100828.66;5014404;28;20030;-77
2021/10/26 02:25:46;;;;;;;13.75;8.02;;;;;;;6.19;59.82;100792.66;5014555;28;20065;-76
2021/10/26 02:28:12;;;;;;;12.00;8.45;;;;;;;6.11;59.42;100779.31;5014345;28;20418;-77
2021/10/26 02:30:39;;;;;;;11.35;8.02;;;;;;;6.22;59.77;100810.78;4996729;28;20034;-78
2021/10/26 02:33:05;;;;;;;11.20;7.88;;;;;;;6.35;59.69;100831.63;5014365;28;20118;-77
2021/10/26 02:35:30;;;;;;;11.77;7.05;;;;;;;6.16;59.79;100795.50;4996617;28;20109;-77
2021/10/26 02:37:56;;;;;;;9.40;7.65;;;;;;;5.88;59.68;100751.34;5014073;28;20064;-77
2021/10/26 02:40:21;;;;;;;9.20;7.47;;;;;;;6.08;59.80;100784.78;5013889;28;20053;-77
2021/10/26 02:42:47;;;;;;;10.35;8.32;;;;;;;6.20;59.86;100811.84;4996572;28;20022;-75
2021/10/26 02:45:13;;;;;;;30.10;17.23;;;;;;;5.83;59.92;100756.94;4996428;28;20040;-77
2021/10/26 02:47:38;;;;;;;10.73;8.13;;;;;;;5.71;59.91;100726.44;5014109;28;20045;-78
2021/10/26 02:50:05;;;;;;;11.43;8.27;;;;;;;5.93;60.01;100759.72;5014076;28;20105;-78
2021/10/26 02:52:31;;;;;;;8.85;7.88;;;;;;;5.75;60.04;100740.97;5013672;28;20026;-77
2021/10/26 02:54:56;;;;;;;9.85;7.80;;;;;;;6.26;60.09;100817.44;5013844;28;20467;-76
2021/10/26 02:57:22;;;;;;;9.73;7.93;;;;;;;5.78;60.12;100742.53;4996127;28;20021;-76
2021/10/26 02:59:47;;;;;;;12.45;8.23;;;;;;;5.97;59.90;100774.28;5013700;28;20026;-75
2021/10/26 03:02:13;;;;;;;10.60;7.28;;;;;;;6.07;60.33;100795.38;5013848;28;20411;-77
2021/10/26 03:04:38;;;;;;;9.10;7.47;;;;;;;6.19;60.35;100812.78;5013752;28;20112;-77
2021/10/26 03:07:03;;;;;;;11.27;8.27;;;;;;;5.97;60.20;100772.50;5013537;28;20034;-77
2021/10/26 03:09:29;;;;;;;11.52;8.45;;;;;;;5.69;60.19;100715.25;5013654;28;20033;-75
2021/10/26 03:11:54;;;;;;;10.75;9.27;;;;;;;6.26;60.16;100808.75;4995978;28;20026;-77
2021/10/26 03:14:20;;;;;;;9.43;7.72;;;;;;;5.63;60.61;100713.94;5013544;28;20033;-77
2021/10/26 03:16:45;;;;;;;11.98;8.10;;;;;;;5.82;60.25;100733.47;5013358;28;20058;-77
2021/10/26 03:19:11;;;;;;;8.70;7.63;;;;;;;6.27;60.26;100803.38;5013306;28;20099;-77
2021/10/26 03:21:38;;;;;;;11.55;9.00;;;;;;;6.31;60.71;100815.28;5013056;28;20034;-77
2021/10/26 03:24:05;;;;;;;10.07;8.18;;;;;;;6.14;60.75;100786.94;5013374;28;20112;-76
2021/10/26 03:26:30;;;;;;;9.93;7.57;;;;;;;5.67;60.88;100704.06;4995771;28;20033;-78
2021/10/26 03:28:56;;;;;;;11.80;7.78;;;;;;;6.11;61.05;100788.97;5013242;28;20030;-77
2021/10/26 03:31:22;;;;;;;11.40;8.75;;;;;;;5.77;60.64;100717.28;4995510;28;20037;-77
2021/10/26 03:33:47;;;;;;;13.80;8.80;;;;;;;6.32;60.99;100806.47;5013251;28;20030;-76
2021/10/26 03:36:13;;;;;;;14.35;10.02;;;;;;;6.34;60.74;100804.56;5013109;28;20037;-77
2021/10/26 03:38:42;;;;;;;13.90;8.73;;;;;;;5.99;61.11;100762.75;5013056;28;20521;-77
2021/10/26 03:41:07;;;;;;;14.20;10.57;;;;;;;6.10;60.79;100748.78;5012824;28;20021;-77
2021/10/26 03:43:32;;;;;;;16.33;10.95;;;;;;;5.97;60.97;100721.88;4995481;28;20032;-77
2021/10/26 03:45:58;;;;;;;18.65;13.02;;;;;;;6.33;60.88;100778.47;5013115;28;20041;-76
2021/10/26 03:48:23;;;;;;;19.75;14.32;;;;;;;6.05;60.52;100733.41;5012810;28;20030;-77
2021/10/26 03:50:49;;;;;;;21.17;14.60;;;;;;;6.04;60.98;100716.03;5012648;28;20022;-78
2021/10/26 03:53:15;;;;;;;17.13;12.23;;;;;;;6.35;61.01;100766.88;5012763;28;20026;-75
2021/10/26 03:55:40;;;;;;;17.83;12.38;;;;;;;5.96;61.08;100715.78;4995255;28;20018;-75
2021/10/26 03:58:09;;;;;;;20.50;12.95;;;;;;;6.51;60.79;100795.38;5012821;28;20026;-76
2021/10/26 04:00:36;;;;;;;21.25;13.85;;;;;;;6.15;60.97;100728.28;5012476;28;20084;-78
2021/10/26 04:03:03;;;;;;;22.08;15.32;;;;;;;6.12;60.95;100723.28;5012616;28;20414;-77
2021/10/26 04:10:49;;;;;;;16.17;12.88;;;;;;;6.60;60.55;100762.31;5012887;28;20050;-77
2021/10/26 04:13:15;;;;;;;15.03;11.10;;;;;;;6.22;60.97;100705.03;5012368;28;20048;-78
2021/10/26 04:15:40;;;;;;;17.40;13.30;;;;;;;6.41;60.71;100726.22;5012151;28;20265;-76
2021/10/26 04:18:06;;;;;;;16.00;12.88;;;;;;;6.40;60.62;100727.19;5011794;28;20034;-77
2021/10/26 04:20:31;;;;;;;21.00;14.40;;;;;;;6.29;60.93;100709.69;4994587;28;20121;-77
2021/10/26 04:22:57;;;;;;;19.70;13.90;;;;;;;6.22;60.94;100705.88;5012445;28;20026;-77
2021/10/26 04:25:22;;;;;;;20.20;14.60;;;;;;;6.61;61.22;100761.34;5012356;28;20061;-77
2021/10/26 04:27:47;;;;;;;24.58;16.88;;;;;;;6.77;60.94;100771.50;5012066;28;20021;-77
2021/10/26 04:30:13;;;;;;;18.33;15.15;;;;;;;6.89;60.88;100784.47;5012323;28;20498;-77
2021/10/26 04:32:39;;;;;;;16.17;13.07;;;;;;;6.88;60.77;100787.22;5012128;28;20425;-77
2021/10/26 04:35:05;;;;;;;20.25;14.13;;;;;;;6.77;61.26;100768.88;4994500;28;20022;-77
2021/10/26 04:37:31;;;;;;;22.92;16.30;;;;;;;6.37;61.07;100701.19;5012124;28;20050;-77
2021/10/26 04:39:56;;;;;;;27.00;18.17;;;;;;;6.62;60.82;100755.16;5011727;28;20072;-76
2021/10/26 04:42:22;;;;;;;31.25;21.40;;;;;;;6.27;61.50;100693.22;5012003;28;20480;-76
2021/10/26 04:44:47;;;;;;;28.70;20.98;;;;;;;6.76;61.52;100775.06;5011974;28;20509;-78
2021/10/26 04:47:15;;;;;;;30.77;20.10;;;;;;;6.73;61.06;100776.16;5011930;28;20034;-76
2021/10/26 04:49:41;;;;;;;26.88;20.58;;;;;;;6.71;61.64;100770.19;5011935;28;20022;-77
2021/10/26 04:52:07;;;;;;;30.70;23.20;;;;;;;6.23;61.26;100696.22;5011639;28;20471;-77
2021/10/26 04:54:32;;;;;;;28.67;20.58;;;;;;;6.63;61.56;100756.81;5011654;28;20033;-77
2021/10/26 04:56:58;;;;;;;31.77;25.55;;;;;;;6.78;61.50;100767.91;5011550;28;20055;-77
2021/10/26 04:59:23;;;;;;;33.05;24.05;;;;;;;6.84;61.75;100781.38;5011575;28;20026;-77
2021/10/26 05:01:49;;;;;;;33.50;23.88;;;;;;;6.89;61.00;100779.22;5011553;28;20414;-77
2021/10/26 05:04:15;;;;;;;35.25;25.13;;;;;;;6.69;60.99;100744.06;5011493;28;20033;-77
2021/10/26 05:06:40;;;;;;;32.63;22.35;;;;;;;6.77;61.24;100747.88;4994056;28;20030;-77
2021/10/26 05:09:06;;;;;;;44.80;29.45;;;;;;;6.51;61.30;100721.06;5011452;28;20034;-77
2021/10/26 05:11:32;;;;;;;35.47;25.20;;;;;;;6.67;61.05;100734.63;5011520;28;20049;-78
2021/10/26 05:13:57;;;;;;;44.70;27.90;;;;;;;7.05;61.11;100791.94;5011428;28;20048;-77
2021/10/26 05:16:25;;;;;;;37.45;25.08;;;;;;;7.09;60.41;100793.34;5011069;28;20042;-77
2021/10/26 05:18:53;;;;;;;32.08;19.40;;;;;;;7.06;61.09;100795.38;5011202;28;20087;-77
2021/10/26 05:21:22;;;;;;;31.45;20.92;;;;;;;6.50;60.62;100711.53;5011326;28;20079;-77
2021/10/26 05:23:49;;;;;;;30.33;21.58;;;;;;;7.09;60.56;100800.38;4993676;28;20034;-77
2021/10/26 05:26:16;;;;;;;27.48;20.48;;;;;;;6.74;60.71;100751.56;5011387;28;20026;-77
2021/10/26 05:28:42;;;;;;;33.72;23.75;;;;;;;6.85;61.04;100782.22;5011343;28;20491;-77
2021/10/26 05:31:08;;;;;;;35.38;23.27;;;;;;;6.60;61.23;100749.19;5014341;28;20029;-77
2021/10/26 05:33:36;;;;;;;32.78;23.05;;;;;;;6.39;61.21;100712.41;5015286;28;20033;-76
2021/10/26 05:36:02;;;;;;;32.58;23.58;;;;;;;6.59;61.07;100742.28;4997424;28;20533;-78
2021/10/26 05:38:27;;;;;;;37.15;24.15;;;;;;;6.36;61.14;100713.47;5015276;28;20049;-77
2021/10/26 05:40:53;;;;;;;31.35;22.85;;;;;;;6.87;61.25;100781.13;5015158;28;20053;-77
2021/10/26 05:43:18;;;;;;;26.42;20.95;;;;;;;6.94;61.38;100805.09;5015010;28;20425;-77
2021/10/26 05:45:47;;;;;;;33.17;22.65;;;;;;;6.47;61.24;100740.63;5014187;28;20124;-77
2021/10/26 05:48:19;;;;;;;25.10;19.13;;;;;;;6.92;61.31;100805.22;5014229;28;20030;-77
2021/10/26 05:50:44;;;;;;;;;;;;;;;6.68;61.93;100807.16;5014840;28;20040;-77
2021/10/26 05:53:10;;;;;;;27.25;19.88;;;;;;;6.63;61.33;100786.53;4996219;28;20008;-77
2021/10/26 05:55:37;;;;;;;27.25;20.13;;;;;;;6.79;61.61;100804.53;5014808;28;20034;-77
2021/10/26 05:58:03;;;;;;;25.17;21.35;;;;;;;6.78;61.54;100810.75;5014657;28;20022;-76
2021/10/26 06:00:28;;;;;;;31.48;23.55;;;;;;;6.10;61.49;100706.00;5014665;28;20030;-77
2021/10/26 06:02:54;;;;;;;32.22;24.20;;;;;;;6.17;61.82;100741.28;5014681;28;20022;-76
2021/10/26 06:05:19;;;;;;;28.08;20.90;;;;;;;6.62;61.78;100792.72;5014654;28;20026;-76
2021/10/26 06:07:45;;;;;;;24.73;17.38;;;;;;;6.56;62.34;100781.88;5014673;28;20508;-76
2021/10/26 06:10:10;;;;;;;22.90;16.02;;;;;;;6.81;61.71;100810.50;5014708;28;20026;-76
2021/10/26 06:12:40;;;;;;;20.73;15.40;;;;;;;6.46;62.26;100760.78;5014378;28;20034;-76
2021/10/26 06:15:07;;;;;;;32.95;21.33;;;;;;;6.55;62.05;100765.31;5014433;28;20109;-76
2021/10/26 06:17:33;;;;;;;25.80;19.60;;;;;;;6.42;62.36;100741.00;5029222;28;20429;-76
2021/10/26 06:19:58;;;;;;;25.02;18.20;;;;;;;6.68;62.92;100797.50;5034280;28;20093;-76
2021/10/26 06:22:23;;;;;;;25.85;16.52;;;;;;;6.57;62.56;100762.56;5034394;28;20025;-76
2021/10/26 06:24:49;;;;;;;19.80;15.70;;;;;;;6.97;63.35;100810.09;5034190;28;20036;-76
2021/10/26 06:27:14;;;;;;;27.80;18.60;;;;;;;6.59;62.83;100730.00;5034130;28;20031;-77
2021/10/26 06:29:41;;;;;;;24.35;17.73;;;;;;;7.09;62.70;100803.00;5033784;28;20029;-77
2021/10/26 06:32:06;;;;;;;26.00;19.52;;;;;;;7.11;62.96;100815.06;5033860;28;20429;-77
2021/10/26 06:34:31;;;;;;;29.83;22.42;;;;;;;6.69;63.86;100735.38;5019803;28;20022;-76
2021/10/26 06:36:57;;;;;;;26.23;20.92;;;;;;;7.28;63.75;100816.31;5009355;28;20461;-77
2021/10/26 06:39:22;;;;;;;25.00;20.58;;;;;;;6.71;63.71;100706.38;4998935;28;20071;-76
2021/10/26 06:41:49;;;;;;;33.42;23.08;;;;;;;7.03;63.75;100737.88;5032997;28;20108;-77
2021/10/26 06:44:15;;;;;;;26.60;19.80;;;;;;;7.38;63.48;100764.69;5021366;28;20146;-77
2021/10/26 06:46:42;;;;;;;26.55;19.73;;;;;;;7.81;63.36;100819.75;5009472;28;20178;-76
2021/10/26 06:49:07;;;;;;;24.40;19.33;;;;;;;7.60;62.95;100767.19;5007788;28;20026;-77
2021/10/26 06:51:32;;;;;;;25.98;17.98;;;;;;;8.09;63.48;100812.16;4987649;28;20034;-76
2021/10/26 06:53:58;;;;;;;22.40;17.27;;;;;;;8.11;62.44;100802.34;5007301;28;20042;-76
2021/10/26 06:56:25;;;;;;;23.17;17.80;;;;;;;8.06;62.93;100765.09;4987152;28;20113;-77
2021/10/26 06:58:51;;;;;;;21.20;15.40;;;;;;;8.39;62.45;100809.59;5003171;28;20034;-76
2021/10/26 07:01:16;;;;;;;15.90;11.10;;;;;;;8.51;62.46;100818.22;5012237;28;20084;-77
2021/10/26 07:03:42;;;;;;;15.50;11.55;;;;;;;8.62;62.34;100809.38;5011346;28;20116;-76
2021/10/26 07:06:08;;;;;;;13.85;10.20;;;;;;;8.61;62.35;100795.38;5004474;28;20030;-76
2021/10/26 07:08:34;;;;;;;14.00;8.73;;;;;;;8.71;62.62;100819.94;5003539;28;20108;-75
2021/10/26 07:10:59;;;;;;;10.75;7.93;;;;;;;8.73;63.11;100822.44;5010050;28;20038;-76
2021/10/26 07:13:25;;;;;;;9.88;7.55;;;;;;;8.21;62.18;100724.31;4988902;28;20518;-77
2021/10/26 07:15:51;;;;;;;13.48;9.35;;;;;;;8.40;62.89;100748.09;5001666;28;20030;-76
2021/10/26 07:18:16;;;;;;;11.63;8.38;;;;;;;8.89;62.41;100813.03;5011327;28;20068;-76
2021/10/26 07:20:42;;;;;;;9.18;7.35;;;;;;;8.41;62.53;100723.44;5011610;28;20419;-76
2021/10/26 07:23:08;;;;;;;12.32;8.43;;;;;;;9.06;62.50;100805.47;5004640;28;20030;-78
2021/10/26 07:25:33;;;;;;;14.07;8.40;;;;;;;8.72;62.25;100732.09;4982027;28;20054;-76
2021/10/26 07:27:59;;;;;;;9.40;8.30;;;;;;;8.95;62.06;100750.28;4996378;28;20029;-77
2021/10/26 07:30:32;;;;;;;11.20;7.93;;;;;;;8.69;61.84;100708.66;5008793;28;20026;-76
2021/10/26 07:33:00;;;;;;;11.73;7.93;;;;;;;9.34;61.82;100814.34;5007826;28;20502;-76
2021/10/26 07:35:30;;;;;;;11.57;9.18;;;;;;;9.43;61.53;100810.88;4988246;28;20116;-76
2021/10/26 07:37:55;;;;;;;11.23;8.82;;;;;;;9.20;61.44;100768.16;5011697;28;20069;-77
2021/10/26 07:40:21;;;;;;;10.02;8.27;;;;;;;9.24;61.10;100751.13;5005596;28;20057;-76
2021/10/26 07:42:46;;;;;;;9.70;8.48;;;;;;;9.44;60.97;100765.09;5010325;28;20563;-76
2021/10/26 07:45:12;;;;;;;10.57;8.68;;;;;;;9.56;61.06;100769.25;5009059;28;20033;-75
2021/10/26 07:47:38;;;;;;;12.80;8.88;;;;;;;9.87;60.78;100809.47;5010038;28;20026;-79
2021/10/26 07:50:06;;;;;;;12.85;8.60;;;;;;;9.46;60.53;100718.34;5002224;28;20034;-78
2021/10/26 07:52:33;;;;;;;9.25;7.93;;;;;;;10.05;60.08;100810.38;4994181;28;20316;-77
2021/10/26 07:54:58;;;;;;;10.68;8.23;;;;;;;9.94;60.22;100772.78;4994973;28;20064;-76
2021/10/26 07:57:26;;;;;;;13.82;8.77;;;;;;;10.16;59.79;100794.38;5002200;28;20084;-77
2021/10/26 07:59:53;;;;;;;13.00;8.82;;;;;;;9.85;60.01;100742.81;4995563;28;20057;-76
2021/10/26 08:02:19;;;;;;;14.93;9.05;;;;;;;10.07;60.14;100757.47;4974998;28;20019;-77
2021/10/26 08:04:46;;;;;;;9.07;7.38;;;;;;;10.40;58.94;100793.06;5003787;28;20045;-76
2021/10/26 08:07:18;;;;;;;8.57;6.85;;;;;;;10.03;58.72;100730.53;5001645;28;20029;-77
2021/10/26 08:09:48;;;;;;;9.10;7.10;;;;;;;10.19;58.49;100745.75;5010674;28;20541;-77
2021/10/26 08:12:14;;;;;;;11.65;8.13;;;;;;;10.05;58.33;100709.28;5011927;28;20430;-76
2021/10/26 08:14:40;;;;;;;9.15;8.15;;;;;;;10.25;57.70;100713.53;4997928;28;20045;-77
2021/10/26 08:17:05;;;;;;;11.27;7.97;;;;;;;10.68;57.73;100789.44;4992609;28;20140;-78
2021/10/26 08:19:31;;;;;;;10.07;7.05;;;;;;;10.33;57.04;100712.78;4995897;28;20030;-77
2021/10/26 08:21:58;;;;;;;10.80;7.00;;;;;;;10.45;56.90;100708.97;5009616;28;20034;-77
2021/10/26 08:24:28;;;;;;;9.50;7.93;;;;;;;10.58;56.70;100729.75;5007589;28;20034;-76
2021/10/26 08:26:58;;;;;;;8.02;7.22;;;;;;;10.89;56.38;100761.94;4987104;28;20412;-76
2021/10/26 08:36:56;;;;;;;11.18;7.35;;;;;;;10.78;54.90;100705.69;4996774;28;20042;-77
2021/10/26 08:39:21;;;;;;;9.68;7.30;;;;;;;10.82;55.18;100714.97;4993410;28;20041;-76
2021/10/26 08:41:51;;;;;;;9.77;7.15;;;;;;;11.08;54.79;100748.56;5000952;28;20037;-77
2021/10/26 08:44:17;;;;;;;8.25;7.38;;;;;;;11.29;55.44;100767.59;5011080;28;20037;-77
2021/10/26 08:46:47;;;;;;;9.65;7.72;;;;;;;10.89;54.69;100706.44;5001964;28;20066;-76
2021/10/26 08:49:14;;;;;;;9.13;8.13;;;;;;;11.29;54.98;100761.50;5002599;28;20072;-76
2021/10/26 08:51:45;;;;;;;7.78;6.47;;;;;;;11.30;54.57;100748.13;5004890;28;20103;-77
2021/10/26 08:54:11;;;;;;;7.93;6.50;;;;;;;11.03;54.06;100698.81;4993066;28;20026;-77
2021/10/26 08:56:38;;;;;;;12.25;9.40;;;;;;;10.84;54.14;100654.06;5011276;28;20499;-76
2021/10/26 08:59:04;;;;;;;10.77;8.40;;;;;;;11.39;53.60;100704.06;5000534;28;20102;-77
2021/10/26 09:01:30;;;;;;;12.02;9.68;;;;;;;11.62;53.67;100742.22;5008579;28;20030;-77
2021/10/26 09:04:12;;;;;;;9.82;7.10;;;;;;;11.62;52.99;100746.69;5002284;28;20075;-76
2021/10/26 09:06:43;;;;;;;10.68;8.70;;;;;;;11.46;54.15;100703.28;5001018;28;20079;-80
2021/10/26 09:09:25;;;;;;;9.88;7.68;;;;;;;11.82;52.62;100750.00;5011202;28;20470;-82
2021/10/26 09:17:31;;;;;;;13.32;9.32;;;;;;;12.00;53.03;100735.72;5009912;28;20125;-82
2021/10/26 09:20:02;;;;;;;13.18;10.07;;;;;;;12.13;52.44;100740.59;5009699;28;20030;-82
2021/10/26 09:22:31;;;;;;;12.45;9.50;;;;;;;12.17;52.93;100736.63;5007918;28;20037;-81
2021/10/26 09:25:01;;;;;;;9.07;6.63;;;;;;;11.97;52.26;100699.00;5008973;28;20107;-76
2021/10/26 09:27:28;;;;;;;8.27;5.93;;;;;;;12.00;51.67;100689.91;4982686;28;20038;-76
2021/10/26 09:29:58;;;;;;;9.05;6.82;;;;;;;12.32;51.85;100727.09;5002948;28;20044;-76
2021/10/26 09:32:36;;;;;;;7.25;5.05;;;;;;;12.30;51.09;100699.09;5010803;28;20030;-76
2021/10/26 09:35:08;;;;;;;5.38;4.68;;;;;;;12.40;51.09;100702.44;5010759;28;20117;-77
2021/10/26 09:37:36;;;;;;;7.82;6.38;;;;;;;12.27;50.84;100665.00;5008630;28;20014;-77
2021/10/26 09:40:04;;;;;;;7.55;5.07;;;;;;;12.60;50.16;100717.06;5010634;28;20056;-76
2021/10/26 09:42:48;;;;;;;6.00;5.03;;;;;;;12.53;50.10;100710.75;5006583;28;20061;-76
2021/10/26 09:45:25;;;;;;;9.40;6.75;;;;;;;12.53;50.17;100707.28;5010331;28;20030;-76
2021/10/26 09:47:57;;;;;;;10.50;8.52;;;;;;;12.57;50.65;100700.66;5007493;28;20030;-76
2021/10/26 09:50:30;;;;;;;9.18;6.70;;;;;;;12.51;50.59;100696.84;5008661;28;20491;-76
2021/10/26 09:53:06;;;;;;;7.88;5.85;;;;;;;12.23;50.86;100651.25;5010554;28;20030;-76
2021/10/26 09:55:37;;;;;;;8.75;6.43;;;;;;;12.52;50.71;100687.06;4991562;28;20053;-77
2021/10/26 09:58:05;;;;;;;9.18;6.85;;;;;;;12.35;50.78;100649.97;5000080;28;20427;-76
2021/10/26 10:00:39;;;;;;;7.18;5.75;;;;;;;12.62;50.67;100677.16;4992644;28;20133;-76
2021/10/26 10:03:13;;;;;;;7.82;5.72;;;;;;;12.64;50.09;100664.59;4999588;28;20141;-76
2021/10/26 10:06:01;;;;;;;10.00;7.72;;;;;;;12.63;50.02;100660.28;4980645;28;20048;-76
2021/10/26 10:08:34;;;;;;;10.48;7.05;;;;;;;12.56;50.45;100657.44;4986666;28;20038;-76
2021/10/26 10:11:06;;;;;;;8.98;6.28;;;;;;;12.64;50.15;100661.97;5008182;28;20060;-75
2021/10/26 10:13:33;;;;;;;7.32;6.03;;;;;;;12.57;50.42;100647.69;5000408;28;20034;-76
2021/10/26 10:16:04;;;;;;;8.80;6.60;;;;;;;12.41;50.03;100617.53;5006418;28;20426;-76
2021/10/26 10:18:30;;;;;;;10.35;7.35;;;;;;;12.69;50.27;100657.00;5003415;28;20030;-77
2021/10/26 10:20:56;;;;;;;9.23;5.57;;;;;;;12.72;50.37;100646.06;4994578;28;20037;-77
2021/10/26 10:23:24;;;;;;;7.45;6.18;;;;;;;12.72;50.46;100644.25;4997720;28;20140;-75
2021/10/26 10:25:52;;;;;;;7.57;6.57;;;;;;;12.58;50.53;100626.31;5004546;28;20045;-77
2021/10/26 10:28:20;;;;;;;7.28;6.40;;;;;;;12.52;49.96;100591.72;5003599;28;20042;-77
2021/10/26 10:30:49;;;;;;;7.15;5.80;;;;;;;12.82;49.72;100640.59;4996020;28;20033;-77
2021/10/26 10:33:22;;;;;;;7.20;6.00;;;;;;;12.72;49.73;100615.09;5013737;28;20032;-76
2021/10/26 10:35:50;;;;;;;11.55;6.20;;;;;;;12.93;49.45;100634.97;5006250;28;20085;-77
2021/10/26 10:38:18;;;;;;;8.68;5.32;;;;;;;12.64;49.25;100591.25;4998486;28;20038;-77
2021/10/26 10:40:44;;;;;;;7.00;4.90;;;;;;;12.96;49.61;100616.06;4995689;28;20121;-76
2021/10/26 10:43:09;;;;;;;8.00;5.13;;;;;;;13.05;49.17;100625.69;5005888;28;20494;-77
2021/10/26 10:45:41;;;;;;;6.57;4.30;;;;;;;12.52;49.11;100538.72;4991532;28;20025;-79
2021/10/26 10:48:28;;;;;;;7.88;5.15;;;;;;;12.99;48.71;100618.41;4994246;28;20033;-78
2021/10/26 10:51:08;;;;;;;8.88;5.38;;;;;;;12.43;49.06;100516.72;5005737;28;20489;-79
2021/10/26 10:53:34;;;;;;;14.40;6.28;;;;;;;13.15;49.24;100618.38;4985341;28;20030;-77
2021/10/26 10:56:18;;;;;;;8.07;5.75;;;;;;;13.26;48.91;100614.56;4998380;28;20030;-77
2021/10/26 10:58:44;;;;;;;9.98;7.50;;;;;;;13.18;48.74;100590.72;5001902;28;20026;-77
2021/10/26 11:01:20;;;;;;;7.43;5.55;;;;;;;13.39;48.49;100609.59;5012210;28;20030;-77
2021/10/26 11:03:46;;;;;;;7.22;5.32;;;;;;;13.43;48.56;100615.38;5012673;28;20037;-77
2021/10/26 11:06:40;;;;;;;7.63;6.82;;;;;;;13.46;48.40;100612.38;5012196;28;20040;-76
2021/10/26 11:09:25;;;;;;;6.75;5.40;;;;;;;13.49;46.84;100589.00;5008969;28;20037;-77
2021/10/26 11:12:20;;;;;;;7.45;5.57;;;;;;;13.51;47.25;100594.97;5006501;28;20041;-76
2021/10/26 11:14:51;;;;;;;7.88;6.43;;;;;;;13.50;47.54;100582.69;4997504;28;20046;-76
2021/10/26 11:17:35;;;;;;;8.80;5.57;;;;;;;13.55;47.72;100575.03;5012699;28;20048;-76
2021/10/26 11:20:11;;;;;;;9.77;7.82;;;;;;;13.40;47.81;100539.63;5011859;28;20030;-75
2021/10/26 11:23:15;;;;;;;10.70;7.57;;;;;;;13.65;47.85;100567.72;5011084;28;20028;-76
2021/10/26 11:25:45;;;;;;;10.13;7.82;;;;;;;13.73;47.73;100564.19;4910216;29;20043;-77
2021/10/26 11:28:13;;;;;;;9.93;6.57;;;;;;;13.72;48.10;100562.53;4986658;28;20446;-76
2021/10/26 11:30:44;;;;;;;14.10;10.88;;;;;;;13.68;47.72;100555.91;5024407;28;20036;-77
2021/10/26 11:33:13;;;;;;;11.65;8.88;;;;;;;13.71;48.01;100554.75;4999685;28;20034;-76
2021/10/26 11:35:56;;;;;;;15.07;9.63;;;;;;;13.78;47.80;100540.59;5032020;28;20114;-76
2021/10/26 11:38:25;;;;;;;10.65;8.05;;;;;;;13.75;47.79;100530.34;5011439;28;20490;-76
2021/10/26 11:40:57;;;;;;;12.88;9.02;;;;;;;13.78;47.64;100539.78;5007977;28;20073;-76
2021/10/26 11:43:23;;;;;;;13.88;10.85;;;;;;;13.65;48.04;100516.47;5008378;28;20049;-76
2021/10/26 11:46:10;;;;;;;15.60;11.05;;;;;;;13.69;48.26;100533.69;5010167;28;20422;-77